Time;durP1;ratioP1;P1;durP2;ratioP2;P2;SDS_P1;SDS_P2;PMS_P1;PMS_P2;Temp;Humidity;BMP_temperature;BMP_pressure;BME280_temperature;BME280_humidity;BME280_pressure;Samples;Min_cycle;Max_cycle;Signal;HPM_P1;HPM_P2
2023/08/15 00:00:47;;;;;;;12.15;5.95;;;21.60;67.90;;;;;;4947514;28;20047;-84
2023/08/15 00:03:14;;;;;;;10.50;5.93;;;21.60;68.40;;;;;;4964273;28;20055;-84
2023/08/15 00:05:42;;;;;;;12.17;5.93;;;21.60;68.20;;;;;;4953199;28;20413;-84
2023/08/15 00:08:09;;;;;;;11.65;6.00;;;21.50;68.20;;;;;;4963579;28;20050;-85
2023/08/15 00:10:35;;;;;;;10.75;5.60;;;21.50;68.20;;;;;;4956263;28;20113;-84
2023/08/15 00:13:03;;;;;;;10.13;5.30;;;21.50;68.50;;;;;;4950885;28;20055;-84
2023/08/15 00:15:31;;;;;;;11.02;5.95;;;21.50;68.60;;;;;;4963353;28;20043;-84
2023/08/15 00:17:58;;;;;;;10.43;5.63;;;21.50;68.60;;;;;;4973725;28;20045;-85
2023/08/15 00:20:25;;;;;;;13.43;6.03;;;21.30;68.90;;;;;;4957039;28;20068;-84
2023/08/15 00:22:52;;;;;;;11.82;5.80;;;21.20;69.10;;;;;;4953152;28;20504;-84
2023/08/15 00:25:19;;;;;;;10.35;6.10;;;21.20;69.40;;;;;;4965795;28;20031;-84
2023/08/15 00:27:46;;;;;;;9.02;5.90;;;21.20;69.30;;;;;;4956649;28;20528;-84
2023/08/15 00:30:13;;;;;;;11.73;5.73;;;21.20;69.40;;;;;;4956804;28;20044;-84
2023/08/15 00:32:41;;;;;;;9.70;6.15;;;21.20;69.20;;;;;;4973318;28;20038;-84
2023/08/15 00:35:10;;;;;;;10.93;6.13;;;21.20;69.10;;;;;;4950626;28;20055;-84
2023/08/15 00:37:37;;;;;;;10.70;5.97;;;21.20;69.10;;;;;;4954099;28;20086;-85
2023/08/15 00:40:04;;;;;;;11.75;6.13;;;21.20;68.90;;;;;;4950206;28;20109;-85
2023/08/15 00:42:31;;;;;;;10.57;5.70;;;21.20;69.10;;;;;;4965663;28;20058;-85
2023/08/15 00:44:58;;;;;;;10.48;5.97;;;21.10;69.10;;;;;;4949404;28;20113;-84
2023/08/15 00:47:26;;;;;;;10.52;6.28;;;21.10;69.20;;;;;;4952351;28;20047;-84
2023/08/15 00:49:54;;;;;;;10.35;5.93;;;21.10;69.30;;;;;;4958917;28;20039;-84
2023/08/15 00:52:21;;;;;;;11.50;6.10;;;21.00;69.70;;;;;;4952366;28;20122;-84
2023/08/15 00:54:50;;;;;;;9.97;5.47;;;21.00;69.90;;;;;;4966736;28;20039;-85
2023/08/15 00:57:18;;;;;;;10.90;5.65;;;20.90;70.40;;;;;;4954369;28;20042;-84
2023/08/15 00:59:46;;;;;;;11.95;6.57;;;20.90;70.60;;;;;;4952766;28;20066;-85
2023/08/15 01:02:13;;;;;;;15.77;6.68;;;20.80;70.70;;;;;;4958401;28;20085;-84
2023/08/15 01:04:44;;;;;;;10.98;6.63;;;20.80;70.70;;;;;;4943308;29;20054;-85
2023/08/15 01:07:11;;;;;;;12.37;6.67;;;20.80;70.60;;;;;;4935826;29;20625;-84
2023/08/15 01:09:41;;;;;;;13.57;6.47;;;20.80;70.50;;;;;;4942695;29;20062;-84
2023/08/15 01:12:37;;;;;;;11.00;5.82;;;20.90;70.50;;;;;;4943970;28;20517;-84
2023/08/15 01:15:04;;;;;;;12.98;6.05;;;20.80;70.30;;;;;;4934801;29;20048;-85
2023/08/15 01:17:44;;;;;;;10.90;6.40;;;20.80;70.40;;;;;;4943709;29;20387;-84
2023/08/15 01:20:15;;;;;;;9.37;5.70;;;20.70;70.50;;;;;;4942210;29;20520;-84
2023/08/15 01:22:46;;;;;;;14.20;6.10;;;20.70;70.50;;;;;;4927700;29;20044;-84
2023/08/15 01:25:14;;;;;;;12.25;6.25;;;20.60;70.70;;;;;;4926270;29;20103;-84
2023/08/15 01:27:43;;;;;;;9.80;5.57;;;20.60;70.80;;;;;;4927201;29;20101;-84
2023/08/15 01:30:13;;;;;;;11.25;5.78;;;20.60;70.80;;;;;;4929941;29;20048;-84
2023/08/15 01:33:00;;;;;;;12.63;6.00;;;20.60;70.90;;;;;;4936467;29;20039;-85
2023/08/15 01:35:35;;;;;;;10.65;5.68;;;20.50;70.90;;;;;;4944967;29;20099;-84
2023/08/15 01:38:09;;;;;;;9.85;5.82;;;20.50;71.10;;;;;;4941331;29;20055;-84
2023/08/15 01:40:38;;;;;;;10.40;5.43;;;20.40;71.30;;;;;;4927688;29;20414;-84
2023/08/15 01:43:07;;;;;;;9.82;5.60;;;20.40;71.40;;;;;;4928385;29;20048;-84
2023/08/15 01:45:35;;;;;;;10.93;5.70;;;20.30;71.50;;;;;;4942007;29;20135;-84
2023/08/15 01:48:02;;;;;;;9.65;6.22;;;20.20;71.80;;;;;;4929105;29;20044;-84
2023/08/15 01:50:29;;;;;;;11.18;5.75;;;20.20;72.10;;;;;;4930509;29;20057;-84
2023/08/15 01:52:56;;;;;;;9.93;6.00;;;20.10;72.30;;;;;;4928651;29;20095;-84
2023/08/15 01:55:23;;;;;;;13.02;6.15;;;20.10;72.50;;;;;;4928833;29;20052;-84
2023/08/15 01:57:50;;;;;;;17.60;6.27;;;20.10;72.50;;;;;;4933656;29;20103;-84
2023/08/15 02:00:17;;;;;;;9.57;5.90;;;20.10;72.40;;;;;;4944511;29;20138;-84
2023/08/15 02:02:44;;;;;;;12.00;6.13;;;20.00;72.60;;;;;;4932085;29;20063;-84
2023/08/15 02:05:13;;;;;;;11.65;6.13;;;20.10;72.70;;;;;;4948536;29;20050;-84
2023/08/15 02:07:40;;;;;;;9.75;5.97;;;20.00;72.70;;;;;;4929420;29;20048;-84
2023/08/15 02:10:07;;;;;;;9.60;6.30;;;19.90;73.00;;;;;;4951472;29;20043;-84
2023/08/15 02:12:34;;;;;;;11.60;6.40;;;19.80;73.20;;;;;;4931553;29;20051;-84
2023/08/15 02:15:04;;;;;;;11.18;7.10;;;19.80;73.40;;;;;;4947726;28;20453;-84
2023/08/15 02:17:32;;;;;;;12.07;6.43;;;19.70;73.60;;;;;;4953680;29;20251;-84
2023/08/15 02:20:00;;;;;;;10.95;6.50;;;19.70;73.80;;;;;;4962575;28;20379;-84
2023/08/15 02:22:28;;;;;;;12.97;6.17;;;19.70;73.90;;;;;;4954214;28;20090;-84
2023/08/15 02:24:55;;;;;;;11.65;6.90;;;19.60;74.00;;;;;;4951052;29;20109;-84
2023/08/15 02:27:26;;;;;;;11.15;6.57;;;19.60;74.20;;;;;;4948161;28;20102;-84
2023/08/15 02:29:53;;;;;;;12.00;6.78;;;19.50;74.20;;;;;;4945216;28;20039;-84
2023/08/15 02:32:20;;;;;;;11.43;6.25;;;19.50;74.30;;;;;;4963803;28;20035;-84
2023/08/15 02:34:47;;;;;;;9.13;6.00;;;19.50;74.20;;;;;;4949146;29;20059;-84
2023/08/15 02:37:15;;;;;;;10.00;5.93;;;19.50;74.20;;;;;;4948105;29;20044;-84
2023/08/15 02:39:42;;;;;;;10.52;6.22;;;19.50;74.10;;;;;;4962650;28;20513;-84
2023/08/15 02:42:09;;;;;;;9.35;5.60;;;19.50;74.10;;;;;;4959149;28;20044;-83
2023/08/15 02:44:37;;;;;;;11.00;5.82;;;19.50;73.90;;;;;;4962978;28;20094;-83
2023/08/15 02:47:04;;;;;;;10.47;5.93;;;19.50;74.00;;;;;;4950897;29;20075;-83
2023/08/15 02:49:32;;;;;;;9.57;5.78;;;19.50;74.00;;;;;;4943488;29;20446;-83
2023/08/15 02:51:59;;;;;;;11.07;5.93;;;19.50;73.80;;;;;;4949619;29;20540;-83
2023/08/15 02:54:26;;;;;;;13.05;6.20;;;19.50;73.90;;;;;;4948404;29;20055;-83
2023/08/15 02:56:53;;;;;;;10.23;5.15;;;19.50;74.10;;;;;;4950623;29;20055;-83
2023/08/15 02:59:22;;;;;;;10.33;5.37;;;19.50;74.10;;;;;;4947188;29;20107;-83
2023/08/15 03:01:49;;;;;;;12.13;6.18;;;19.40;74.10;;;;;;4952721;28;20094;-83
2023/08/15 03:04:16;;;;;;;10.90;5.93;;;19.40;74.10;;;;;;4952933;29;20083;-83
2023/08/15 03:06:44;;;;;;;9.88;5.38;;;19.40;74.20;;;;;;4950633;28;20472;-83
2023/08/15 03:09:11;;;;;;;9.15;5.50;;;19.50;74.00;;;;;;4931382;29;20052;-83
2023/08/15 03:11:38;;;;;;;11.90;5.27;;;19.50;74.00;;;;;;4944753;29;20470;-83
2023/08/15 03:14:05;;;;;;;11.30;6.18;;;19.50;73.90;;;;;;4930890;29;20044;-83
2023/08/15 03:16:32;;;;;;;9.48;5.57;;;19.50;74.00;;;;;;4953348;28;20035;-83
2023/08/15 03:18:59;;;;;;;9.55;5.38;;;19.40;74.10;;;;;;4963221;28;20484;-83
2023/08/15 03:21:26;;;;;;;12.50;5.82;;;19.40;74.30;;;;;;4950764;29;20055;-83
2023/08/15 03:23:54;;;;;;;9.97;6.03;;;19.30;74.30;;;;;;4943717;29;20047;-83
2023/08/15 03:26:21;;;;;;;9.43;5.93;;;19.30;74.40;;;;;;4947393;29;20047;-83
2023/08/15 03:28:52;;;;;;;11.20;5.55;;;19.30;74.60;;;;;;4961821;28;20040;-83
2023/08/15 03:31:21;;;;;;;8.85;5.70;;;19.20;74.60;;;;;;4957638;28;20516;-83
2023/08/15 03:33:53;;;;;;;9.98;5.45;;;19.20;74.60;;;;;;4944804;29;20048;-84
2023/08/15 03:36:20;;;;;;;8.83;5.50;;;19.20;74.60;;;;;;4948279;29;20548;-83
2023/08/15 03:38:48;;;;;;;11.07;5.72;;;19.20;74.60;;;;;;4946895;28;20035;-82
2023/08/15 03:41:15;;;;;;;9.93;5.65;;;19.20;74.50;;;;;;4961878;28;20036;-83
2023/08/15 03:43:42;;;;;;;10.57;5.82;;;19.20;74.60;;;;;;4959458;28;20035;-83
2023/08/15 03:46:09;;;;;;;9.80;6.10;;;19.20;74.70;;;;;;4948020;29;20051;-83
2023/08/15 03:48:36;;;;;;;10.10;6.20;;;19.10;74.80;;;;;;4950927;28;20055;-83
2023/08/15 03:51:04;;;;;;;10.00;6.10;;;19.10;74.90;;;;;;4958640;28;20048;-83
2023/08/15 03:53:31;;;;;;;10.45;6.40;;;19.10;75.00;;;;;;4960438;28;20405;-83
2023/08/15 03:55:58;;;;;;;10.60;6.80;;;19.10;75.10;;;;;;4950786;29;20516;-83
2023/08/15 03:58:25;;;;;;;9.77;6.07;;;19.00;75.20;;;;;;4946488;28;20489;-83
2023/08/15 04:00:53;;;;;;;9.13;6.10;;;19.00;75.30;;;;;;4944510;29;20054;-83
2023/08/15 04:03:20;;;;;;;10.70;5.90;;;19.00;75.40;;;;;;4959976;28;20572;-83
2023/08/15 04:05:47;;;;;;;10.43;5.82;;;19.00;75.40;;;;;;4954660;28;20047;-83
2023/08/15 04:08:16;;;;;;;9.43;5.88;;;18.90;75.60;;;;;;4963190;28;20039;-83
2023/08/15 04:10:46;;;;;;;10.02;5.95;;;18.90;75.70;;;;;;4953973;28;20460;-83
2023/08/15 04:13:16;;;;;;;12.50;5.73;;;18.90;75.80;;;;;;4954995;28;20052;-82
2023/08/15 04:15:44;;;;;;;12.20;5.85;;;18.90;75.60;;;;;;4954420;28;20066;-83
2023/08/15 04:18:11;;;;;;;12.60;6.30;;;18.90;75.80;;;;;;4949183;28;20441;-83
2023/08/15 04:20:39;;;;;;;12.40;6.20;;;18.90;75.70;;;;;;4953767;28;20039;-83
2023/08/15 04:23:07;;;;;;;12.80;6.30;;;19.00;75.70;;;;;;4961474;28;20090;-83
2023/08/15 04:25:36;;;;;;;11.90;6.53;;;18.90;75.80;;;;;;4963287;28;20525;-83
2023/08/15 04:28:04;;;;;;;10.52;6.38;;;18.90;75.70;;;;;;4952398;28;20107;-83
2023/08/15 04:30:33;;;;;;;10.10;6.68;;;19.00;75.60;;;;;;4953092;28;20117;-83
2023/08/15 04:33:01;;;;;;;10.00;6.72;;;19.00;75.60;;;;;;4945636;28;20389;-83
2023/08/15 04:35:28;;;;;;;11.82;6.57;;;19.00;75.50;;;;;;4954572;28;20130;-83
2023/08/15 04:37:56;;;;;;;9.60;6.17;;;19.00;75.50;;;;;;4944866;28;20074;-83
2023/08/15 04:40:32;;;;;;;9.95;6.43;;;19.00;75.40;;;;;;4945152;28;20404;-83
2023/08/15 04:43:00;;;;;;;9.48;6.20;;;19.00;75.60;;;;;;4947104;28;20043;-83
2023/08/15 04:45:27;;;;;;;9.93;6.03;;;19.10;75.60;;;;;;4952297;28;20565;-83
2023/08/15 04:47:54;;;;;;;10.63;5.93;;;19.10;75.50;;;;;;4962532;28;20054;-83
2023/08/15 04:50:21;;;;;;;10.37;5.87;;;19.10;75.40;;;;;;4954566;28;20097;-83
2023/08/15 04:52:49;;;;;;;9.63;6.20;;;19.10;75.20;;;;;;4963199;28;20062;-83
2023/08/15 04:55:18;;;;;;;8.82;5.82;;;19.20;75.00;;;;;;4957869;28;20109;-83
2023/08/15 04:57:45;;;;;;;12.35;6.28;;;19.30;74.80;;;;;;4957850;28;20039;-84
2023/08/15 05:00:15;;;;;;;10.35;6.03;;;19.30;74.90;;;;;;4949265;28;20055;-83
2023/08/15 05:02:42;;;;;;;12.03;6.47;;;19.40;74.80;;;;;;4956740;28;20047;-83
2023/08/15 05:05:10;;;;;;;10.32;5.90;;;19.50;74.70;;;;;;4966026;28;20070;-83
2023/08/15 05:07:39;;;;;;;9.93;6.10;;;19.50;74.20;;;;;;4948628;28;20050;-83
2023/08/15 05:10:08;;;;;;;9.75;5.70;;;19.60;74.00;;;;;;4953207;28;20046;-83
2023/08/15 05:12:37;;;;;;;9.55;5.97;;;19.70;74.00;;;;;;4967824;28;20069;-83
2023/08/15 05:15:07;;;;;;;10.50;5.93;;;19.80;73.80;;;;;;4957607;28;20408;-83
2023/08/15 05:17:36;;;;;;;10.63;5.68;;;20.00;73.60;;;;;;4966822;28;20047;-83
2023/08/15 05:20:04;;;;;;;11.32;5.35;;;20.00;73.30;;;;;;4953692;28;20042;-83
2023/08/15 05:22:34;;;;;;;11.38;5.35;;;20.10;73.00;;;;;;4952728;28;20057;-83
2023/08/15 05:25:02;;;;;;;10.48;5.95;;;20.20;72.60;;;;;;4952050;28;20035;-83
2023/08/15 05:27:32;;;;;;;10.33;5.30;;;20.30;72.70;;;;;;4956947;28;20547;-83
2023/08/15 05:30:00;;;;;;;8.98;5.25;;;20.40;72.10;;;;;;4952729;28;20053;-83
2023/08/15 05:32:27;;;;;;;10.13;5.10;;;20.60;71.70;;;;;;4963223;28;20043;-83
2023/08/15 05:34:55;;;;;;;10.75;5.70;;;20.80;71.50;;;;;;4954425;28;20086;-83
2023/08/15 05:37:23;;;;;;;9.80;5.57;;;20.90;71.10;;;;;;4963317;28;20041;-83
2023/08/15 05:39:50;;;;;;;12.17;5.33;;;21.00;70.70;;;;;;4950868;28;20074;-84
2023/08/15 05:42:20;;;;;;;9.02;5.25;;;21.10;70.70;;;;;;4950235;28;20426;-85
2023/08/15 05:44:48;;;;;;;9.85;4.95;;;21.20;70.40;;;;;;4965349;28;20126;-85
2023/08/15 05:47:15;;;;;;;9.25;5.28;;;21.30;70.50;;;;;;4947952;28;20094;-84
2023/08/15 05:49:42;;;;;;;8.32;5.07;;;21.50;70.20;;;;;;4964252;28;20794;-85
2023/08/15 05:52:10;;;;;;;8.87;5.00;;;21.60;69.70;;;;;;4954397;28;20039;-85
2023/08/15 05:54:37;;;;;;;8.18;5.13;;;21.70;70.00;;;;;;4953803;28;20198;-84
2023/08/15 05:57:05;;;;;;;10.40;5.13;;;21.90;69.20;;;;;;4956514;28;20042;-85
2023/08/15 05:59:32;;;;;;;8.27;5.00;;;22.00;69.20;;;;;;4949375;28;20057;-85
2023/08/15 06:01:59;;;;;;;8.30;4.90;;;22.10;69.10;;;;;;4956129;28;20050;-86
2023/08/15 06:04:26;;;;;;;8.30;4.67;;;22.20;68.60;;;;;;4938191;29;20054;-85
2023/08/15 06:06:53;;;;;;;11.77;5.18;;;22.30;68.40;;;;;;4933659;29;20489;-85
2023/08/15 06:09:20;;;;;;;11.75;5.25;;;22.30;68.40;;;;;;4927227;29;20401;-84
2023/08/15 06:11:48;;;;;;;8.27;4.43;;;22.40;68.20;;;;;;4928127;29;20047;-85
2023/08/15 06:14:17;;;;;;;8.88;4.80;;;22.60;68.30;;;;;;4925962;29;20047;-85
2023/08/15 06:16:44;;;;;;;10.37;4.70;;;22.70;68.30;;;;;;4916741;29;20048;-85
2023/08/15 06:19:11;;;;;;;7.90;4.38;;;22.90;68.40;;;;;;4932260;29;20072;-86
2023/08/15 06:21:41;;;;;;;8.90;4.65;;;23.10;67.90;;;;;;4929472;29;20048;-83
2023/08/15 06:24:12;;;;;;;9.30;4.60;;;23.20;67.30;;;;;;4931995;29;20482;-83
2023/08/15 06:26:40;;;;;;;11.52;4.72;;;23.30;67.20;;;;;;4946758;29;20047;-83
2023/08/15 06:29:07;;;;;;;8.80;4.63;;;23.40;66.50;;;;;;4931480;29;20061;-83
2023/08/15 06:31:35;;;;;;;8.80;4.30;;;23.50;66.00;;;;;;4929069;29;20413;-83
2023/08/15 06:34:03;;;;;;;8.20;4.00;;;23.60;65.10;;;;;;4933036;29;20047;-84
2023/08/15 06:36:31;;;;;;;9.40;4.10;;;23.80;65.30;;;;;;4941340;29;20051;-84
2023/08/15 06:38:58;;;;;;;9.20;4.43;;;24.00;65.30;;;;;;4925992;29;20051;-84
2023/08/15 06:41:25;;;;;;;9.40;4.83;;;24.10;64.60;;;;;;4928528;29;20044;-84
2023/08/15 06:43:54;;;;;;;9.35;4.97;;;24.20;64.50;;;;;;4931999;29;20378;-84
2023/08/15 06:46:21;;;;;;;8.63;4.22;;;24.30;65.60;;;;;;4929173;29;20046;-84
2023/08/15 06:48:48;;;;;;;10.65;3.80;;;24.50;64.10;;;;;;4928879;29;20040;-84
2023/08/15 06:51:15;;;;;;;10.05;4.30;;;24.60;64.10;;;;;;4931208;29;20104;-84
2023/08/15 06:53:46;;;;;;;9.83;4.10;;;24.70;62.20;;;;;;4929074;29;20055;-84
2023/08/15 06:56:13;;;;;;;8.75;4.32;;;24.80;62.30;;;;;;4941284;29;20039;-84
2023/08/15 06:58:40;;;;;;;7.10;4.00;;;24.90;62.60;;;;;;4924631;29;20044;-84
2023/08/15 07:01:07;;;;;;;8.35;4.22;;;25.00;62.70;;;;;;4943486;29;20071;-84
2023/08/15 07:03:35;;;;;;;9.02;3.83;;;25.20;63.00;;;;;;4929657;28;20122;-83
2023/08/15 07:06:03;;;;;;;7.83;3.73;;;25.30;61.80;;;;;;4950115;28;20042;-84
2023/08/15 07:08:31;;;;;;;7.88;3.70;;;25.30;61.20;;;;;;4956150;28;20121;-84
2023/08/15 07:10:59;;;;;;;7.40;3.53;;;25.50;60.90;;;;;;4952385;28;20039;-84
2023/08/15 07:13:27;;;;;;;8.93;3.55;;;25.60;60.60;;;;;;4967018;28;20408;-84
2023/08/15 07:15:55;;;;;;;7.80;3.60;;;25.70;59.90;;;;;;4952628;28;20050;-84
2023/08/15 07:18:23;;;;;;;6.23;3.43;;;25.80;60.10;;;;;;4970326;28;20034;-84
2023/08/15 07:20:51;;;;;;;8.93;3.40;;;25.90;59.40;;;;;;4955002;28;20469;-84
2023/08/15 07:23:20;;;;;;;6.85;3.42;;;26.00;57.60;;;;;;4951240;28;20039;-84
2023/08/15 07:25:47;;;;;;;8.65;3.13;;;26.10;56.90;;;;;;4965990;28;20050;-84
2023/08/15 07:28:15;;;;;;;7.95;3.60;;;26.10;56.00;;;;;;4967952;28;20043;-85
2023/08/15 07:30:45;;;;;;;8.57;3.30;;;26.20;56.60;;;;;;4964510;28;20473;-85
2023/08/15 07:33:13;;;;;;;6.85;3.00;;;26.30;57.00;;;;;;4965015;28;20075;-84
2023/08/15 07:35:41;;;;;;;6.85;3.20;;;26.50;55.60;;;;;;4951821;28;20046;-86
2023/08/15 07:38:08;;;;;;;39.42;4.90;;;26.60;56.60;;;;;;4973127;28;20038;-87
2023/08/15 07:40:36;;;;;;;9.73;3.55;;;26.70;57.30;;;;;;4957070;28;20069;-87
2023/08/15 07:43:03;;;;;;;6.17;3.10;;;26.80;56.90;;;;;;4949935;28;20113;-87
2023/08/15 07:45:30;;;;;;;9.60;3.17;;;26.90;56.80;;;;;;4967834;28;20047;-87
2023/08/15 07:47:58;;;;;;;6.78;3.00;;;27.00;54.50;;;;;;4972757;28;20070;-85
2023/08/15 07:50:28;;;;;;;10.68;3.30;;;27.10;54.90;;;;;;4944101;28;20046;-87
2023/08/15 07:52:58;;;;;;;6.68;3.28;;;27.20;55.00;;;;;;4945850;29;20043;-88
2023/08/15 07:55:27;;;;;;;7.50;2.63;;;27.20;54.30;;;;;;4956932;28;20492;-87
2023/08/15 07:57:57;;;;;;;6.45;3.10;;;27.30;55.30;;;;;;4968469;28;20043;-87
2023/08/15 08:00:24;;;;;;;7.28;2.95;;;27.40;53.90;;;;;;4966408;28;20039;-87
2023/08/15 08:02:52;;;;;;;6.68;3.22;;;27.40;54.60;;;;;;4964931;28;20051;-88
2023/08/15 08:05:20;;;;;;;20.45;3.33;;;27.50;53.20;;;;;;4965864;28;20058;-88
2023/08/15 08:07:49;;;;;;;7.63;2.90;;;27.60;54.00;;;;;;4954195;28;20059;-88
2023/08/15 08:10:17;;;;;;;7.63;3.00;;;27.70;53.90;;;;;;4942474;28;20074;-87
2023/08/15 08:12:45;;;;;;;6.90;2.72;;;27.90;52.60;;;;;;4956386;28;20047;-88
2023/08/15 08:15:13;;;;;;;8.50;2.90;;;28.00;52.60;;;;;;4956758;28;20059;-88
2023/08/15 08:17:40;;;;;;;7.10;3.20;;;28.10;54.40;;;;;;4952360;29;20081;-88
2023/08/15 08:20:13;;;;;;;9.23;3.20;;;28.10;53.30;;;;;;4957705;28;20039;-88
2023/08/15 08:22:40;;;;;;;8.15;3.17;;;28.20;54.00;;;;;;4957024;28;20043;-88
2023/08/15 08:25:19;;;;;;;6.55;2.85;;;28.30;53.10;;;;;;4953470;28;20043;-88
2023/08/15 08:27:46;;;;;;;5.65;2.90;;;28.40;52.00;;;;;;4969830;28;20047;-89
2023/08/15 08:30:18;;;;;;;6.78;2.90;;;28.50;51.40;;;;;;4957228;28;20039;-89
2023/08/15 08:32:46;;;;;;;11.23;3.13;;;28.50;50.80;;;;;;4952545;28;20453;-88
2023/08/15 08:35:16;;;;;;;8.73;2.78;;;28.50;51.70;;;;;;4972170;28;20125;-88
2023/08/15 08:37:44;;;;;;;6.05;2.75;;;28.60;50.90;;;;;;4958175;28;20042;-88
2023/08/15 08:40:13;;;;;;;7.55;2.90;;;28.70;51.30;;;;;;4959724;28;20034;-88
2023/08/15 08:42:44;;;;;;;6.93;3.50;;;28.70;50.10;;;;;;4957396;28;20054;-88
2023/08/15 08:45:12;;;;;;;7.30;2.87;;;28.80;50.70;;;;;;4959391;28;20045;-88
2023/08/15 08:47:40;;;;;;;8.68;3.30;;;28.90;50.80;;;;;;4952241;28;20118;-88
2023/08/15 08:50:11;;;;;;;7.40;2.65;;;28.90;50.70;;;;;;4969103;28;20102;-88
2023/08/15 08:52:40;;;;;;;7.63;2.85;;;29.00;49.60;;;;;;4956548;28;20051;-88
2023/08/15 08:55:11;;;;;;;6.75;2.85;;;29.00;49.40;;;;;;4949388;28;20053;-88
2023/08/15 08:57:41;;;;;;;6.50;3.23;;;29.10;51.10;;;;;;4953877;28;20067;-88
2023/08/15 09:00:11;;;;;;;9.13;3.22;;;29.30;50.10;;;;;;4962495;28;20043;-87
2023/08/15 09:02:39;;;;;;;9.15;2.88;;;29.30;50.30;;;;;;4955824;28;20047;-89
2023/08/15 09:05:09;;;;;;;8.32;3.13;;;29.50;49.10;;;;;;4947284;28;20043;-88
2023/08/15 09:07:36;;;;;;;6.75;2.97;;;29.50;47.10;;;;;;4954898;28;20054;-88
2023/08/15 09:10:05;;;;;;;7.47;3.13;;;29.40;47.40;;;;;;4941400;28;20055;-88
2023/08/15 09:12:37;;;;;;;7.13;2.85;;;29.40;49.10;;;;;;4950873;28;20053;-88
2023/08/15 09:15:06;;;;;;;8.57;2.65;;;29.50;48.20;;;;;;4946335;28;20056;-88
2023/08/15 09:17:33;;;;;;;9.40;2.70;;;29.60;49.60;;;;;;4961024;28;20507;-88
2023/08/15 09:20:12;;;;;;;7.93;2.90;;;29.70;47.70;;;;;;4971164;28;20039;-88
2023/08/15 09:22:41;;;;;;;10.53;2.97;;;29.90;49.50;;;;;;4958879;28;20075;-88
2023/08/15 09:25:09;;;;;;;7.03;2.72;;;29.80;46.60;;;;;;4950913;28;20062;-88
2023/08/15 09:27:37;;;;;;;7.00;2.65;;;29.90;47.60;;;;;;4967409;28;20054;-88
2023/08/15 09:30:10;;;;;;;16.08;3.08;;;29.90;48.40;;;;;;4953961;28;20440;-89
2023/08/15 09:32:42;;;;;;;7.15;2.75;;;30.00;47.30;;;;;;4950874;29;20147;-88
2023/08/15 09:35:10;;;;;;;9.10;3.17;;;30.10;48.70;;;;;;4972873;28;20050;-88
2023/08/15 09:37:42;;;;;;;6.90;3.00;;;30.10;48.00;;;;;;4956702;28;20042;-89
2023/08/15 09:40:14;;;;;;;7.53;2.63;;;30.10;46.40;;;;;;4973254;28;20497;-88
2023/08/15 09:42:43;;;;;;;6.60;2.65;;;30.10;46.30;;;;;;4975335;28;20042;-88
2023/08/15 09:45:12;;;;;;;44.08;4.68;;;30.20;47.70;;;;;;4953428;28;20069;-89
2023/08/15 09:47:40;;;;;;;6.37;2.60;;;30.30;47.70;;;;;;4959084;28;20100;-89
2023/08/15 09:50:09;;;;;;;8.27;2.78;;;30.30;46.40;;;;;;4955631;28;20043;-89
2023/08/15 09:52:39;;;;;;;5.80;2.80;;;30.30;46.30;;;;;;4951874;28;20053;-88
2023/08/15 09:55:09;;;;;;;6.85;2.63;;;30.30;46.80;;;;;;4954095;28;20047;-89
2023/08/15 09:57:37;;;;;;;5.95;2.65;;;30.40;45.70;;;;;;4957888;28;20098;-88
2023/08/15 10:00:08;;;;;;;6.67;2.63;;;30.40;45.20;;;;;;4973819;28;20038;-89
2023/08/15 10:02:48;;;;;;;5.82;2.53;;;30.40;44.50;;;;;;4962419;28;20050;-88
2023/08/15 10:05:20;;;;;;;5.72;2.75;;;30.50;45.90;;;;;;4958661;28;20050;-88
2023/08/15 10:07:48;;;;;;;9.90;2.75;;;30.60;46.10;;;;;;4950956;29;20074;-88
2023/08/15 10:10:16;;;;;;;7.20;2.75;;;30.70;45.80;;;;;;4952551;28;20042;-89
2023/08/15 10:12:45;;;;;;;6.03;2.57;;;30.70;45.00;;;;;;4956166;28;20086;-88
2023/08/15 10:15:13;;;;;;;5.80;2.67;;;30.60;43.00;;;;;;4959088;28;20043;-89
2023/08/15 10:17:41;;;;;;;7.28;2.67;;;30.60;44.50;;;;;;4958054;28;20400;-88
2023/08/15 10:20:12;;;;;;;5.63;2.80;;;30.70;45.40;;;;;;4950998;28;20488;-88
2023/08/15 10:22:39;;;;;;;7.00;2.75;;;30.80;44.90;;;;;;4968379;28;20122;-88
2023/08/15 10:25:33;;;;;;;6.73;2.80;;;30.90;44.60;;;;;;4952853;28;20045;-88
2023/08/15 10:28:04;;;;;;;6.95;2.70;;;30.90;44.90;;;;;;4974203;28;20057;-89
2023/08/15 10:30:34;;;;;;;5.80;2.63;;;30.90;44.70;;;;;;4961054;28;20439;-89
2023/08/15 10:33:14;;;;;;;6.32;3.00;;;31.00;45.50;;;;;;4951409;28;20047;-89
2023/08/15 10:36:02;;;;;;;6.95;2.80;;;31.10;46.80;;;;;;4955120;28;20047;-88
2023/08/15 10:38:31;;;;;;;7.00;3.00;;;31.10;44.70;;;;;;4964212;28;20119;-89
2023/08/15 10:41:04;;;;;;;6.82;2.97;;;31.10;45.10;;;;;;4952807;28;20051;-88
2023/08/15 10:43:35;;;;;;;5.80;2.53;;;31.10;45.50;;;;;;4952183;28;20456;-89
2023/08/15 10:46:05;;;;;;;11.93;2.88;;;31.20;43.90;;;;;;4968569;28;20510;-89
2023/08/15 10:48:49;;;;;;;7.90;3.28;;;31.30;46.20;;;;;;4950691;28;20043;-89
2023/08/15 10:51:33;;;;;;;8.20;3.13;;;31.30;44.90;;;;;;4956597;28;20191;-89
2023/08/15 10:54:14;;;;;;;10.80;2.90;;;31.30;43.00;;;;;;4955292;28;20408;-88
2023/08/15 10:56:42;;;;;;;7.50;2.92;;;31.40;44.10;;;;;;4955983;28;20051;-89
2023/08/15 10:59:14;;;;;;;10.63;2.95;;;31.60;44.40;;;;;;4950156;28;20049;-89
2023/08/15 11:01:44;;;;;;;5.82;2.63;;;31.70;42.40;;;;;;4958022;28;20043;-89
2023/08/15 11:04:16;;;;;;;8.10;2.80;;;31.70;42.90;;;;;;4954068;29;20069;-88
2023/08/15 11:06:51;;;;;;;6.90;2.85;;;31.60;42.10;;;;;;4949308;29;20039;-88
2023/08/15 11:09:18;;;;;;;11.25;3.63;;;31.60;41.20;;;;;;4950969;29;20047;-88
2023/08/15 11:11:48;;;;;;;9.05;2.65;;;31.60;41.40;;;;;;4928221;29;20056;-88
2023/08/15 11:14:19;;;;;;;6.55;2.63;;;31.50;42.70;;;;;;4945567;29;20046;-88
2023/08/15 11:16:48;;;;;;;7.17;2.77;;;31.40;43.40;;;;;;4943019;29;20048;-88
2023/08/15 11:19:20;;;;;;;6.22;2.85;;;31.60;44.60;;;;;;4952652;28;20568;-88
2023/08/15 11:21:48;;;;;;;6.55;2.90;;;31.60;43.40;;;;;;4950139;29;20047;-88
2023/08/15 11:24:15;;;;;;;6.57;3.15;;;31.60;40.20;;;;;;4949917;29;20510;-89
2023/08/15 11:26:43;;;;;;;8.60;3.35;;;31.50;40.20;;;;;;4961924;28;20051;-88
2023/08/15 11:29:12;;;;;;;6.73;3.00;;;31.60;41.70;;;;;;4962294;28;20047;-88
2023/08/15 11:31:40;;;;;;;58.80;6.38;;;31.60;41.90;;;;;;4951598;28;20054;-89
2023/08/15 11:34:11;;;;;;;9.73;3.22;;;31.70;44.30;;;;;;4947801;29;20054;-89
2023/08/15 11:36:38;;;;;;;7.63;3.25;;;31.90;42.90;;;;;;4963677;28;20048;-88
2023/08/15 11:39:10;;;;;;;10.30;3.47;;;32.10;42.90;;;;;;4953071;28;20457;-88
2023/08/15 11:41:38;;;;;;;5.73;2.70;;;32.10;42.70;;;;;;4949016;29;20065;-88
2023/08/15 11:44:05;;;;;;;6.57;2.70;;;31.90;41.50;;;;;;4949713;29;20441;-89
2023/08/15 11:46:39;;;;;;;5.50;2.55;;;31.90;40.90;;;;;;4944236;29;20110;-87
2023/08/15 11:49:18;;;;;;;6.68;2.40;;;32.00;44.20;;;;;;4951484;29;20052;-89
2023/08/15 11:51:45;;;;;;;6.25;2.90;;;32.10;42.10;;;;;;4949843;29;20051;-89
2023/08/15 11:54:12;;;;;;;6.70;2.60;;;32.10;41.00;;;;;;4952774;29;20497;-89
2023/08/15 11:56:50;;;;;;;7.55;2.90;;;32.20;41.50;;;;;;4952888;28;20070;-89
2023/08/15 11:59:19;;;;;;;5.45;2.80;;;32.10;42.40;;;;;;4962772;28;20496;-89
2023/08/15 12:01:47;;;;;;;6.82;2.67;;;32.10;41.70;;;;;;4946001;28;20090;-89
2023/08/15 12:04:18;;;;;;;8.07;2.85;;;32.00;40.50;;;;;;4952999;29;20133;-89
2023/08/15 12:06:45;;;;;;;7.80;2.70;;;32.10;42.00;;;;;;4938385;29;20047;-89
2023/08/15 12:09:12;;;;;;;6.68;2.58;;;32.10;40.30;;;;;;4955037;29;20114;-89
2023/08/15 12:11:40;;;;;;;7.38;2.80;;;32.20;41.60;;;;;;4971268;28;20114;-89
2023/08/15 12:14:21;;;;;;;7.63;2.60;;;32.20;40.70;;;;;;4954220;28;20058;-88
2023/08/15 12:16:48;;;;;;;5.95;2.90;;;32.10;40.90;;;;;;4966547;28;20110;-89
2023/08/15 12:19:15;;;;;;;6.70;2.83;;;32.00;41.20;;;;;;4949812;29;20044;-88
2023/08/15 12:21:49;;;;;;;8.20;3.10;;;31.90;40.10;;;;;;4960336;28;20066;-89
2023/08/15 12:24:16;;;;;;;5.82;2.75;;;32.00;40.00;;;;;;4940936;29;20043;-89
2023/08/15 12:26:43;;;;;;;5.30;2.30;;;32.10;41.10;;;;;;4965425;28;20039;-89
2023/08/15 12:29:10;;;;;;;5.25;2.40;;;32.10;41.60;;;;;;4948051;28;20044;-89
2023/08/15 12:31:39;;;;;;;5.87;2.77;;;32.30;42.30;;;;;;4965951;28;20503;-88
2023/08/15 12:34:06;;;;;;;5.65;2.70;;;32.40;40.20;;;;;;4947094;29;20078;-89
2023/08/15 12:36:33;;;;;;;5.47;2.70;;;32.50;43.20;;;;;;4954104;28;20039;-89
2023/08/15 12:39:00;;;;;;;6.40;2.55;;;32.40;40.40;;;;;;4951275;29;20051;-88
2023/08/15 12:41:27;;;;;;;8.52;3.00;;;32.40;41.10;;;;;;4964259;28;20597;-89
2023/08/15 12:43:54;;;;;;;7.00;2.90;;;32.40;40.90;;;;;;4951122;29;20072;-88
2023/08/15 12:46:22;;;;;;;9.25;3.40;;;32.50;41.90;;;;;;4955341;28;20129;-88
2023/08/15 12:48:49;;;;;;;6.03;2.80;;;32.70;41.60;;;;;;4946612;29;20051;-88
2023/08/15 12:51:16;;;;;;;6.35;2.75;;;32.70;42.30;;;;;;4955368;29;20048;-88